• NOTAM LFCU

     16/05/22 03:15Z - 16/05/23 11:59Z
    ARBRES IMPACTANT LES TROUEES DE PISTES: TROUEE OUEST PISTE REVETUE PSN: 453515.38N 0022436E RDL278/500M SEUIL 10 : ALTITUDE AU SOMMET 2500FT HAUTEUR 60FT PSN: 453220N 0022231E RDL265/600M SEUIL 10 ALTITUDE AU SOMMET 2560FT HAUTEUR 100FT PSN: 453215N 0022408E RDL274/1120 SEUIL 10 ALTITUDE AU SOMMET 2587FT HAUTEUR 90FT PSN: 453220N 0022425E RDL287/760 SEUIL 10 ALTITUDE AU SOMMET 2532FT HAUTEUR 53FT TROUEE OUEST PISTE NON REVETUE : PSN: 453210N 0022459E RDL265/160 SEUIL 10 ALTITUDE AU SOMMET 2462FT HAUTEUR 36FT SURFACE LATERALE SUD PISTE NON REVETUE PSN: 453204N 0022547E RDL200/209 SEUIL 28 ALTITUDE AU SOMMET 2474FT HAUTEUR 60FT TROUEE EST PISTE REVETUE PSN: 453204N 0022612E RDL103/260 SEUIL 28 ALTITUDE AU SOMMET 2438FT HAUTEUR 71FT

    NOTAM LFDE

     05/05/22 01:58Z - 06/05/23 11:59Z
    OBSTACLES : ARBRES DANS LES TROUEES : -OUEST : ARBRES NR 1 : PSN : 452458.6N 0020307.33E RDL248/1030M THR 07 ALT AU SOMMET : 2034FT HAUTEUR : 77FT ARBRES NR 2 : PSN : 452500.16N 0020313.06E RDL248/905M THR 07 ALT AU SOMMET : 2007FT HAUTEUR : 67FT ARBRES NR3 : PSN : 452457.58N 0020304.34E RDL248/1110 THR 07 ALT AU SOMMET : 2185FT HAUTEUR : 207FT ARBRES NR4 : PSN : 452501.5N 0020311.13E RDL251/928 THR 07 ALT AU SOMMET : 2015FT HAUTEUR : 55FT ARBRES NR5 : PSN : 452558.57N 0020258.49E RDL252/1200 THR 07 ALT AU SOMMET : 2099FT HAUTEUR : 161FT ARBRES NR6 : PSN : 452506N 0020318E RDL256/760 THR 07 ALT AU SOMMET : 2001FT HAUTEUR : 102FT ARBRES BORDURE SEUIL 07 PISTE NON REVETUE: PSN : 452507.47N 0020347.26E RDL235/155 THR 07 ALT AU SOMMET : 1911FT HAUTEUR : 52FT TROUEE EST: BOIS NR01 : PSN : 452520.61N 0020423.E RDL060/209 THR 25 ALT AU SOMMET : 1900FT HAUTEUR : 44FT BOIS NR 02 : PSN : 452519N 0020430E RDL078/326 THR 07 ALT AU SOMMET : 1903FT HAUTEUR : 48FT BOSQUET SEUIL 25 PISTE NON REVETUE PSN : 452518N 0020426E RDL076/185 THR 07 ALT AU SOMMET : 1895FT HAUTEUR : 38FT











  • PHOTOS SATELLITE

CARTE TEMSI

CARTE WINTEM

  • Vent au sol

  • Vent à 5000ft

  • ANIMATION RADAR

  • METAR/TAF LFLC (CLERMONT FERRAND-AUVERGNE)

    LFLC 071330Z AUTO 17006KT 9999 FEW016 OVC024 03/M00 Q1017 TEMPO BKN009

    TAF LFLC 071100Z 0712/0812 VRB02KT 9999 FEW010 BKN016 TEMPO 0712/0724 BKN009 TEMPO 0800/0810 BKN005 PROB40 TEMPO 0800/0810 3000 BR BKN003

    METAR/TAF LFBL (LIMOGES / Bellegarde)

    LFBL 071330Z AUTO 05013KT 9999 FEW017 04/00 Q1014 NOSIG

    TAF AMD LFBL 071312Z 0713/0812 06010KT 9999 BKN017 PROB40 0800/0808 3000 BR PROB30 TEMPO 0802/0806 0500 FG VV///

    METAR/TAF LFSL

    LFSL 071330Z AUTO VRB01KT CAVOK 09/02 Q1014 NOSIG

    TAF LFSL 071100Z 0712/0721 VRB03KT CAVOK

    METAR/TAF LFLW (AURILLAC)

    LFLW 071330Z AUTO VRB03KT CAVOK 07/M01 Q1013 NOSIG

    TAF LFLW 071100Z 0712/0721 13004KT CAVOK

RESERVATION